Time;durP1;ratioP1;P1;durP2;ratioP2;P2;SDS_P1;SDS_P2;PMS_P1;PMS_P2;Temp;Humidity;BMP_temperature;BMP_pressure;BME280_temperature;BME280_humidity;BME280_pressure;Samples;Min_cycle;Max_cycle;Signal;HPM_P1;HPM_P2
2023/10/29 00:02:23;;;;;;;444.77;171.07;;;;;;;;;;5017194;28;20227;-69
2023/10/29 00:04:49;;;;;;;423.83;166.73;;;;;;;;;;5020371;28;20211;-69
2023/10/29 00:07:15;;;;;;;453.47;185.20;;;;;;;;;;5016122;28;20432;-69
2023/10/29 00:09:41;;;;;;;455.50;184.37;;;;;;;;;;5016693;28;20282;-69
2023/10/29 00:12:07;;;;;;;435.23;176.53;;;;;;;;;;5010848;28;20188;-69
2023/10/29 00:14:33;;;;;;;437.20;172.20;;;;;;;;;;5030321;28;20289;-69
2023/10/29 00:16:59;;;;;;;461.40;183.07;;;;;;;;;;5019154;28;20239;-69
2023/10/29 00:19:25;;;;;;;445.83;171.83;;;;;;;;;;5017622;28;20706;-69
2023/10/29 00:21:51;;;;;;;452.17;183.27;;;;;;;;;;5014945;28;20208;-69
2023/10/29 00:24:17;;;;;;;419.63;162.57;;;;;;;;;;5018859;28;20188;-70
2023/10/29 00:26:43;;;;;;;443.07;176.57;;;;;;;;;;5019218;28;20254;-70
2023/10/29 00:29:09;;;;;;;448.77;172.23;;;;;;;;;;5012851;28;20224;-70
2023/10/29 00:31:35;;;;;;;463.10;182.57;;;;;;;;;;5010646;28;20211;-69
2023/10/29 00:34:01;;;;;;;477.80;192.00;;;;;;;;;;5017963;28;20231;-69
2023/10/29 00:36:26;;;;;;;453.23;180.37;;;;;;;;;;5014484;28;20235;-69
2023/10/29 00:38:52;;;;;;;501.13;208.07;;;;;;;;;;5008682;28;20618;-69
2023/10/29 00:41:18;;;;;;;453.17;177.73;;;;;;;;;;5016372;28;20223;-69
2023/10/29 00:43:44;;;;;;;461.03;180.03;;;;;;;;;;5016342;28;20215;-69
2023/10/29 00:46:11;;;;;;;472.87;189.13;;;;;;;;;;5012860;28;20645;-69
2023/10/29 00:48:38;;;;;;;434.23;167.37;;;;;;;;;;5019966;28;20346;-69
2023/10/29 00:51:04;;;;;;;474.03;190.77;;;;;;;;;;5012464;28;20721;-69
2023/10/29 00:53:30;;;;;;;468.83;187.50;;;;;;;;;;5012499;28;20266;-69
2023/10/29 00:55:57;;;;;;;459.83;185.67;;;;;;;;;;5015130;28;20208;-69
2023/10/29 00:58:23;;;;;;;464.40;185.13;;;;;;;;;;5013942;28;20242;-68
2023/10/29 01:00:50;;;;;;;427.47;166.50;;;;;;;;;;5014067;28;20338;-68
2023/10/29 01:03:18;;;;;;;438.47;173.20;;;;;;;;;;5013972;28;20187;-69
2023/10/29 01:05:44;;;;;;;474.77;192.23;;;;;;;;;;5015943;28;20276;-69
2023/10/29 01:08:10;;;;;;;450.33;182.93;;;;;;;;;;5013928;28;20311;-69
2023/10/29 01:10:36;;;;;;;429.17;167.33;;;;;;;;;;5010973;28;20219;-69
2023/10/29 01:13:02;;;;;;;452.07;181.63;;;;;;;;;;5013380;28;20220;-69
2023/10/29 01:15:27;;;;;;;451.20;177.07;;;;;;;;;;5016742;28;20429;-69
2023/10/29 01:17:53;;;;;;;448.63;180.53;;;;;;;;;;5008156;28;20203;-69
2023/10/29 01:20:19;;;;;;;455.27;183.87;;;;;;;;;;5016634;28;20333;-69
2023/10/29 01:22:45;;;;;;;410.17;158.23;;;;;;;;;;5015555;28;20302;-69
2023/10/29 01:25:12;;;;;;;475.63;195.27;;;;;;;;;;5013154;28;20207;-69
2023/10/29 01:27:38;;;;;;;450.87;180.17;;;;;;;;;;5015335;28;20212;-69
2023/10/29 01:30:05;;;;;;;463.33;186.27;;;;;;;;;;5009911;28;20629;-69
2023/10/29 01:32:31;;;;;;;441.67;172.40;;;;;;;;;;5013280;28;20176;-69
2023/10/29 01:34:57;;;;;;;441.07;174.63;;;;;;;;;;5008941;28;20220;-69
2023/10/29 01:37:23;;;;;;;459.50;181.63;;;;;;;;;;5007428;28;20224;-70
2023/10/29 01:39:49;;;;;;;429.17;169.83;;;;;;;;;;5008187;28;20218;-70
2023/10/29 01:42:15;;;;;;;416.37;162.93;;;;;;;;;;5015946;28;20670;-69
2023/10/29 01:44:41;;;;;;;439.13;172.37;;;;;;;;;;5018666;28;20180;-69
2023/10/29 01:47:07;;;;;;;470.60;188.73;;;;;;;;;;5014536;28;20664;-69
2023/10/29 01:49:33;;;;;;;436.33;167.27;;;;;;;;;;5012236;28;21192;-69
2023/10/29 01:51:59;;;;;;;450.47;175.13;;;;;;;;;;5008885;28;20210;-69
2023/10/29 01:54:25;;;;;;;462.77;185.33;;;;;;;;;;5007218;28;20637;-69
2023/10/29 01:56:51;;;;;;;415.37;159.23;;;;;;;;;;5017536;28;20203;-69
2023/10/29 01:59:17;;;;;;;429.77;166.77;;;;;;;;;;5012861;28;20561;-70
2023/10/29 02:01:43;;;;;;;455.60;180.77;;;;;;;;;;5013069;28;20270;-70
2023/10/29 02:04:09;;;;;;;439.67;173.30;;;;;;;;;;5014347;28;20273;-69
2023/10/29 02:06:39;;;;;;;433.43;168.50;;;;;;;;;;5009252;28;20262;-69
2023/10/29 02:09:05;;;;;;;451.27;182.50;;;;;;;;;;5014973;28;20207;-69
2023/10/29 02:11:31;;;;;;;446.30;173.40;;;;;;;;;;5018268;28;20688;-69
2023/10/29 02:13:57;;;;;;;428.20;169.27;;;;;;;;;;5011977;28;20326;-69
2023/10/29 02:16:23;;;;;;;463.00;184.67;;;;;;;;;;5016917;28;20216;-69
2023/10/29 02:18:49;;;;;;;449.33;180.00;;;;;;;;;;5017981;28;20431;-69
2023/10/29 02:21:15;;;;;;;459.57;185.50;;;;;;;;;;5010745;28;20562;-70
2023/10/29 02:23:41;;;;;;;428.53;165.77;;;;;;;;;;5009372;28;20599;-69
2023/10/29 02:26:07;;;;;;;485.03;197.23;;;;;;;;;;5016235;28;20313;-69
2023/10/29 02:28:33;;;;;;;449.90;177.03;;;;;;;;;;5015478;28;20227;-69
2023/10/29 02:30:59;;;;;;;433.73;167.73;;;;;;;;;;5015100;28;20224;-69
2023/10/29 02:33:25;;;;;;;455.47;179.90;;;;;;;;;;5016380;28;20397;-69
2023/10/29 02:35:51;;;;;;;425.63;164.53;;;;;;;;;;5016398;28;20200;-70
2023/10/29 02:38:18;;;;;;;433.67;173.17;;;;;;;;;;5012128;28;21517;-69
2023/10/29 02:40:44;;;;;;;415.37;159.70;;;;;;;;;;5018611;28;20362;-69
2023/10/29 02:43:10;;;;;;;458.70;187.37;;;;;;;;;;5017776;28;20311;-70
2023/10/29 02:45:36;;;;;;;454.30;182.80;;;;;;;;;;5017359;28;20570;-70
2023/10/29 02:48:02;;;;;;;440.30;172.20;;;;;;;;;;5021043;28;20282;-70
2023/10/29 02:50:28;;;;;;;444.50;175.67;;;;;;;;;;5018574;28;20892;-69
2023/10/29 02:52:54;;;;;;;427.80;166.37;;;;;;;;;;5011816;28;20694;-69
2023/10/29 02:55:20;;;;;;;449.00;179.67;;;;;;;;;;5019265;28;20220;-69
2023/10/29 02:57:46;;;;;;;443.43;169.93;;;;;;;;;;5019817;28;20224;-70
2023/10/29 03:00:12;;;;;;;467.40;186.57;;;;;;;;;;5018646;28;20238;-70
2023/10/29 03:02:38;;;;;;;433.97;168.83;;;;;;;;;;5013607;28;20188;-69
2023/10/29 03:05:04;;;;;;;459.13;183.93;;;;;;;;;;5018239;28;20575;-70
2023/10/29 03:07:30;;;;;;;460.73;181.27;;;;;;;;;;5014179;28;20220;-70
2023/10/29 03:09:56;;;;;;;419.13;159.43;;;;;;;;;;5023970;28;20215;-70
2023/10/29 03:12:22;;;;;;;456.30;179.67;;;;;;;;;;5018904;28;20223;-70
2023/10/29 03:14:48;;;;;;;421.83;162.60;;;;;;;;;;5021593;28;20212;-70
2023/10/29 03:17:14;;;;;;;446.17;174.93;;;;;;;;;;5009944;28;20585;-70
2023/10/29 03:19:40;;;;;;;403.27;156.73;;;;;;;;;;5011583;28;20208;-70
2023/10/29 03:22:06;;;;;;;466.37;190.27;;;;;;;;;;5016907;28;20282;-70
2023/10/29 03:24:32;;;;;;;457.17;177.27;;;;;;;;;;5021311;28;20555;-70
2023/10/29 03:26:58;;;;;;;440.57;175.30;;;;;;;;;;5013886;28;20205;-70
2023/10/29 03:29:24;;;;;;;431.83;170.10;;;;;;;;;;5015297;28;20215;-70
2023/10/29 03:31:50;;;;;;;428.43;167.07;;;;;;;;;;5019623;28;20208;-70
2023/10/29 03:34:16;;;;;;;454.50;184.73;;;;;;;;;;5016414;28;20226;-70
2023/10/29 03:36:42;;;;;;;412.40;160.00;;;;;;;;;;5020193;28;20208;-70
2023/10/29 03:39:08;;;;;;;458.90;184.53;;;;;;;;;;5018957;28;20294;-69
2023/10/29 03:41:34;;;;;;;417.57;163.10;;;;;;;;;;5024023;28;20211;-70
2023/10/29 03:44:00;;;;;;;418.03;161.97;;;;;;;;;;5021099;28;20216;-70
2023/10/29 03:46:26;;;;;;;426.70;164.77;;;;;;;;;;5016280;28;20315;-70
2023/10/29 03:48:52;;;;;;;420.57;162.87;;;;;;;;;;5021695;28;20207;-70
2023/10/29 03:51:18;;;;;;;477.87;196.40;;;;;;;;;;5016891;28;20187;-70
2023/10/29 03:53:44;;;;;;;474.03;187.77;;;;;;;;;;5020144;28;20212;-70
2023/10/29 03:56:10;;;;;;;456.07;181.60;;;;;;;;;;5019377;28;20780;-70
2023/10/29 03:58:36;;;;;;;449.37;174.10;;;;;;;;;;5017357;28;20243;-70
2023/10/29 04:01:02;;;;;;;447.33;172.43;;;;;;;;;;5022195;28;20212;-70
2023/10/29 04:03:29;;;;;;;437.57;170.20;;;;;;;;;;5019936;28;20362;-70
2023/10/29 04:05:55;;;;;;;419.20;161.00;;;;;;;;;;5019286;28;20180;-70
2023/10/29 04:08:21;;;;;;;452.83;181.30;;;;;;;;;;5011213;28;20689;-69
2023/10/29 04:10:47;;;;;;;421.87;161.90;;;;;;;;;;5017708;28;20241;-69
2023/10/29 04:13:14;;;;;;;430.77;169.43;;;;;;;;;;5011703;28;20216;-70
2023/10/29 04:15:40;;;;;;;434.23;175.03;;;;;;;;;;5017896;28;20307;-70
2023/10/29 04:18:06;;;;;;;421.13;161.57;;;;;;;;;;5008356;28;20283;-70
2023/10/29 04:20:32;;;;;;;428.67;167.13;;;;;;;;;;5020525;28;20176;-70
2023/10/29 04:22:58;;;;;;;431.07;167.87;;;;;;;;;;5019465;28;20215;-70
2023/10/29 04:25:23;;;;;;;462.33;182.50;;;;;;;;;;5007880;28;20633;-70
2023/10/29 04:27:49;;;;;;;429.57;165.37;;;;;;;;;;5018377;28;20215;-70
2023/10/29 04:30:15;;;;;;;465.87;187.77;;;;;;;;;;5018641;28;20634;-70
2023/10/29 04:32:42;;;;;;;430.93;166.70;;;;;;;;;;5018853;28;20185;-70
2023/10/29 04:35:08;;;;;;;434.43;167.43;;;;;;;;;;5010730;28;20216;-70
2023/10/29 04:37:34;;;;;;;417.83;163.53;;;;;;;;;;5008994;28;20220;-70
2023/10/29 04:40:00;;;;;;;433.43;166.97;;;;;;;;;;5013435;28;20277;-70
2023/10/29 04:42:25;;;;;;;462.00;185.93;;;;;;;;;;5004593;28;20223;-70
2023/10/29 04:44:51;;;;;;;414.37;157.37;;;;;;;;;;5021418;28;20176;-70
2023/10/29 04:47:17;;;;;;;436.77;174.33;;;;;;;;;;5020309;28;20692;-70
2023/10/29 04:49:43;;;;;;;457.70;176.33;;;;;;;;;;5020176;28;20212;-70
2023/10/29 04:52:09;;;;;;;412.73;162.17;;;;;;;;;;5010866;28;20322;-70
2023/10/29 04:54:36;;;;;;;490.00;200.00;;;;;;;;;;5016339;28;20733;-70
2023/10/29 04:57:02;;;;;;;468.43;184.57;;;;;;;;;;5018547;28;20594;-70
2023/10/29 04:59:28;;;;;;;451.03;176.40;;;;;;;;;;5013927;28;20315;-70
2023/10/29 05:01:54;;;;;;;428.43;165.40;;;;;;;;;;5017320;28;20989;-70
2023/10/29 05:04:20;;;;;;;465.27;186.00;;;;;;;;;;5017046;28;20227;-70
2023/10/29 05:06:46;;;;;;;432.40;165.50;;;;;;;;;;5020350;28;20293;-70
2023/10/29 05:09:12;;;;;;;435.33;169.33;;;;;;;;;;5016519;28;20326;-69
2023/10/29 05:11:38;;;;;;;426.60;164.53;;;;;;;;;;5019441;28;20259;-69
2023/10/29 05:14:04;;;;;;;419.63;162.20;;;;;;;;;;5015420;28;20220;-69
2023/10/29 05:16:30;;;;;;;439.13;172.87;;;;;;;;;;5014633;28;20224;-71
2023/10/29 05:18:55;;;;;;;424.93;162.80;;;;;;;;;;5018312;28;20227;-69
2023/10/29 05:21:21;;;;;;;447.10;178.50;;;;;;;;;;5010783;28;20185;-69
2023/10/29 05:23:47;;;;;;;416.70;163.27;;;;;;;;;;5012318;28;20180;-69
2023/10/29 05:26:13;;;;;;;448.37;179.67;;;;;;;;;;5016364;28;20219;-69
2023/10/29 05:28:39;;;;;;;420.77;162.47;;;;;;;;;;5016539;28;20349;-69
2023/10/29 05:31:05;;;;;;;418.23;161.30;;;;;;;;;;5047680;28;20708;-69
2023/10/29 05:33:32;;;;;;;442.07;170.13;;;;;;;;;;5017498;28;20216;-69
2023/10/29 05:35:58;;;;;;;438.50;166.90;;;;;;;;;;5016376;28;21832;-69
2023/10/29 05:38:24;;;;;;;429.93;169.43;;;;;;;;;;5017852;28;20220;-69
2023/10/29 05:40:50;;;;;;;403.77;153.37;;;;;;;;;;5017187;28;20222;-69
2023/10/29 05:43:15;;;;;;;417.80;159.63;;;;;;;;;;5005265;28;20304;-69
2023/10/29 05:45:42;;;;;;;464.40;183.60;;;;;;;;;;5007859;28;20216;-69
2023/10/29 05:48:07;;;;;;;422.97;163.67;;;;;;;;;;5011399;28;20203;-69
2023/10/29 05:50:33;;;;;;;429.27;163.47;;;;;;;;;;5007190;28;20278;-70
2023/10/29 05:52:59;;;;;;;430.40;163.70;;;;;;;;;;5015325;28;20258;-70
2023/10/29 05:55:25;;;;;;;435.27;167.77;;;;;;;;;;5015731;28;20220;-72
2023/10/29 05:57:52;;;;;;;446.40;173.37;;;;;;;;;;5006814;28;20227;-72
2023/10/29 06:00:18;;;;;;;494.07;204.57;;;;;;;;;;5014432;28;20591;-72
2023/10/29 06:02:44;;;;;;;438.37;173.00;;;;;;;;;;5014739;28;20548;-72
2023/10/29 06:05:10;;;;;;;429.97;165.33;;;;;;;;;;5019928;28;20306;-73
2023/10/29 06:07:37;;;;;;;436.40;169.83;;;;;;;;;;5011537;28;20246;-75
2023/10/29 06:10:03;;;;;;;418.30;157.03;;;;;;;;;;5012523;28;20236;-74
2023/10/29 06:12:29;;;;;;;466.53;185.17;;;;;;;;;;5015604;28;20262;-74
2023/10/29 06:14:54;;;;;;;417.93;158.97;;;;;;;;;;5018857;28;20212;-74
2023/10/29 06:17:21;;;;;;;444.17;175.27;;;;;;;;;;5012641;28;20227;-73
2023/10/29 06:19:47;;;;;;;428.27;166.73;;;;;;;;;;5023701;28;20212;-74
2023/10/29 06:22:13;;;;;;;431.80;166.83;;;;;;;;;;5022940;28;20258;-75
2023/10/29 06:24:39;;;;;;;426.07;165.27;;;;;;;;;;5024420;28;20211;-74
2023/10/29 06:27:05;;;;;;;445.50;171.53;;;;;;;;;;5021544;28;20933;-74
2023/10/29 06:29:31;;;;;;;456.43;180.30;;;;;;;;;;5021746;28;20250;-75
2023/10/29 06:31:57;;;;;;;424.10;163.70;;;;;;;;;;5017806;28;20226;-75
2023/10/29 06:34:23;;;;;;;440.37;172.90;;;;;;;;;;5012397;28;20271;-75
2023/10/29 06:36:49;;;;;;;414.03;156.97;;;;;;;;;;5016688;28;20226;-83
2023/10/29 06:39:16;;;;;;;434.30;172.47;;;;;;;;;;5018136;28;20199;-82
2023/10/29 06:41:42;;;;;;;442.03;169.87;;;;;;;;;;5023179;28;20270;-81
2023/10/29 06:44:08;;;;;;;422.70;164.23;;;;;;;;;;5017860;28;20216;-78
2023/10/29 06:46:34;;;;;;;443.00;169.87;;;;;;;;;;5024075;28;20664;-83
2023/10/29 06:49:00;;;;;;;444.17;169.70;;;;;;;;;;5025877;28;20276;-80
2023/10/29 06:51:26;;;;;;;438.57;173.13;;;;;;;;;;5022947;28;20236;-79
2023/10/29 06:53:52;;;;;;;448.87;173.57;;;;;;;;;;5025312;28;20228;-79
2023/10/29 06:56:18;;;;;;;455.27;176.17;;;;;;;;;;5017610;28;20219;-77
2023/10/29 06:58:44;;;;;;;445.20;174.40;;;;;;;;;;5015870;28;20215;-75
2023/10/29 07:01:10;;;;;;;423.53;161.27;;;;;;;;;;5020002;28;20674;-75
2023/10/29 07:03:37;;;;;;;457.00;179.37;;;;;;;;;;5011326;28;20238;-75
2023/10/29 07:06:05;;;;;;;430.17;165.30;;;;;;;;;;5019792;28;20837;-74
2023/10/29 07:08:32;;;;;;;457.47;181.00;;;;;;;;;;5012044;28;20223;-75
2023/10/29 07:10:58;;;;;;;419.47;159.40;;;;;;;;;;5017422;28;20315;-75
2023/10/29 07:13:24;;;;;;;449.00;182.00;;;;;;;;;;5021280;28;20279;-75
2023/10/29 07:15:50;;;;;;;447.60;177.33;;;;;;;;;;5013391;28;20215;-75
2023/10/29 07:18:16;;;;;;;475.27;189.70;;;;;;;;;;5018937;28;20224;-74
2023/10/29 07:20:42;;;;;;;406.57;157.77;;;;;;;;;;5021899;28;20227;-75
2023/10/29 07:23:09;;;;;;;454.07;178.77;;;;;;;;;;5017227;28;20204;-75
2023/10/29 07:25:35;;;;;;;444.90;172.23;;;;;;;;;;5019301;28;20220;-74
2023/10/29 07:28:01;;;;;;;421.10;161.53;;;;;;;;;;5020837;28;20855;-74
2023/10/29 07:30:27;;;;;;;464.43;184.97;;;;;;;;;;5018005;28;20722;-74
2023/10/29 07:32:53;;;;;;;516.27;213.70;;;;;;;;;;4999111;28;20188;-74
2023/10/29 07:35:20;;;;;;;452.93;181.83;;;;;;;;;;5013358;28;20219;-75
2023/10/29 07:37:46;;;;;;;427.13;165.83;;;;;;;;;;5018939;28;20269;-76
2023/10/29 07:40:12;;;;;;;445.33;178.43;;;;;;;;;;5019510;28;20218;-74
2023/10/29 07:42:38;;;;;;;590.57;265.13;;;;;;;;;;5010027;28;20222;-75
2023/10/29 07:45:04;;;;;;;427.23;166.33;;;;;;;;;;5013997;28;20679;-78
2023/10/29 07:47:30;;;;;;;474.37;191.50;;;;;;;;;;5020599;28;20284;-77
2023/10/29 07:49:56;;;;;;;456.73;186.53;;;;;;;;;;5009925;28;20605;-79
2023/10/29 07:52:22;;;;;;;466.60;187.60;;;;;;;;;;5024716;28;20288;-79
2023/10/29 07:54:47;;;;;;;413.17;159.67;;;;;;;;;;5031931;28;20215;-82
2023/10/29 07:57:13;;;;;;;432.13;169.00;;;;;;;;;;5018230;28;20200;-73
2023/10/29 07:59:39;;;;;;;455.57;179.87;;;;;;;;;;5015251;28;20229;-75
2023/10/29 08:02:05;;;;;;;461.40;184.33;;;;;;;;;;5020052;28;20209;-75
2023/10/29 08:04:31;;;;;;;498.23;205.47;;;;;;;;;;5012742;28;20216;-75
2023/10/29 08:06:57;;;;;;;486.43;198.00;;;;;;;;;;5018925;28;20722;-76
2023/10/29 08:09:23;;;;;;;453.03;180.90;;;;;;;;;;5017428;28;20220;-75
2023/10/29 08:11:49;;;;;;;423.83;166.43;;;;;;;;;;5020205;28;20285;-76
2023/10/29 08:14:15;;;;;;;497.37;208.40;;;;;;;;;;5014604;28;20670;-75
2023/10/29 08:16:41;;;;;;;433.87;174.13;;;;;;;;;;5024331;28;20216;-75
2023/10/29 08:19:08;;;;;;;440.00;176.30;;;;;;;;;;5034100;28;20210;-76
2023/10/29 08:21:34;;;;;;;466.53;186.43;;;;;;;;;;5023685;28;20578;-74
2023/10/29 08:24:00;;;;;;;454.97;181.17;;;;;;;;;;5032129;28;20198;-75
2023/10/29 08:26:28;;;;;;;460.73;190.47;;;;;;;;;;5017633;28;20228;-79
2023/10/29 08:28:54;;;;;;;464.83;185.67;;;;;;;;;;5023263;28;20228;-75
2023/10/29 08:31:21;;;;;;;444.20;181.07;;;;;;;;;;5016265;28;20297;-75
2023/10/29 08:33:48;;;;;;;489.17;204.13;;;;;;;;;;5001333;28;20224;-75
2023/10/29 08:36:17;;;;;;;430.37;168.00;;;;;;;;;;5013922;28;20213;-74
2023/10/29 08:38:43;;;;;;;435.33;168.23;;;;;;;;;;5030453;28;20184;-67
2023/10/29 08:41:12;;;;;;;469.37;184.57;;;;;;;;;;5032756;28;20235;-66
2023/10/29 08:43:38;;;;;;;415.27;162.23;;;;;;;;;;5030748;28;20227;-67
2023/10/29 08:46:04;;;;;;;444.90;174.03;;;;;;;;;;5023706;28;20204;-66
2023/10/29 08:48:31;;;;;;;467.33;189.13;;;;;;;;;;5024222;28;20691;-77
2023/10/29 08:50:57;;;;;;;443.97;173.03;;;;;;;;;;5019297;28;20187;-76
2023/10/29 08:53:23;;;;;;;433.57;166.20;;;;;;;;;;5021040;28;20221;-76
2023/10/29 08:55:51;;;;;;;440.57;173.87;;;;;;;;;;5023296;28;20215;-75
2023/10/29 08:58:17;;;;;;;439.23;169.20;;;;;;;;;;5021528;28;20314;-76
2023/10/29 09:00:45;;;;;;;428.23;167.83;;;;;;;;;;5028825;28;20207;-77
2023/10/29 09:03:13;;;;;;;421.33;162.17;;;;;;;;;;5022085;28;20180;-77
2023/10/29 09:05:39;;;;;;;449.40;176.40;;;;;;;;;;5035180;28;20190;-77
2023/10/29 09:08:05;;;;;;;421.00;162.50;;;;;;;;;;5033067;28;20222;-77
2023/10/29 09:10:31;;;;;;;458.20;183.57;;;;;;;;;;5015575;28;20216;-76
2023/10/29 09:12:57;;;;;;;442.10;169.93;;;;;;;;;;5022662;28;20739;-77
2023/10/29 09:15:23;;;;;;;461.03;182.80;;;;;;;;;;5029533;28;20299;-77
2023/10/29 09:17:49;;;;;;;427.43;162.13;;;;;;;;;;5032446;28;20199;-77
2023/10/29 09:20:15;;;;;;;439.67;171.73;;;;;;;;;;5034487;28;20295;-76
2023/10/29 09:22:41;;;;;;;440.77;173.73;;;;;;;;;;5017434;28;20215;-77
2023/10/29 09:25:07;;;;;;;423.00;164.00;;;;;;;;;;5033013;28;20650;-78
2023/10/29 09:27:33;;;;;;;502.17;207.97;;;;;;;;;;5024890;28;20780;-71
2023/10/29 09:29:59;;;;;;;431.70;170.20;;;;;;;;;;5018116;28;20271;-73
2023/10/29 09:32:25;;;;;;;450.83;185.53;;;;;;;;;;5012878;28;20212;-72
2023/10/29 09:34:51;;;;;;;423.63;165.53;;;;;;;;;;5022040;28;20227;-76
2023/10/29 09:37:17;;;;;;;418.87;166.50;;;;;;;;;;5036677;28;20707;-75
2023/10/29 09:39:43;;;;;;;505.33;217.40;;;;;;;;;;5018360;28;20235;-76
2023/10/29 09:42:11;;;;;;;436.70;172.93;;;;;;;;;;5020375;28;20200;-76
2023/10/29 09:44:40;;;;;;;441.87;177.63;;;;;;;;;;5014480;28;20192;-78
2023/10/29 09:47:12;;;;;;;466.73;187.47;;;;;;;;;;5012011;28;20211;-77
2023/10/29 09:49:38;;;;;;;463.93;186.30;;;;;;;;;;5012105;28;20224;-74
2023/10/29 09:52:05;;;;;;;492.60;203.13;;;;;;;;;;5012644;28;20263;-73
2023/10/29 09:54:31;;;;;;;498.40;204.63;;;;;;;;;;5011040;28;20227;-73
2023/10/29 09:56:57;;;;;;;435.10;170.70;;;;;;;;;;5015198;28;20200;-73
2023/10/29 09:59:23;;;;;;;502.87;211.73;;;;;;;;;;5011458;28;20239;-73
2023/10/29 10:01:49;;;;;;;441.73;182.67;;;;;;;;;;5001747;28;20258;-77
2023/10/29 10:04:15;;;;;;;415.77;163.40;;;;;;;;;;5013720;28;20244;-75
2023/10/29 10:06:42;;;;;;;428.63;168.80;;;;;;;;;;5013295;28;20745;-77
2023/10/29 10:09:10;;;;;;;454.80;188.63;;;;;;;;;;5011053;28;20208;-77
2023/10/29 10:11:36;;;;;;;501.57;208.37;;;;;;;;;;5015067;28;20647;-77
2023/10/29 10:14:02;;;;;;;465.77;187.73;;;;;;;;;;5000835;28;20224;-77
2023/10/29 10:16:28;;;;;;;503.37;217.10;;;;;;;;;;5008156;28;20220;-77
2023/10/29 10:18:55;;;;;;;432.10;177.37;;;;;;;;;;5013080;28;20212;-77
2023/10/29 10:21:23;;;;;;;480.63;205.87;;;;;;;;;;5008436;28;20191;-78
2023/10/29 10:23:49;;;;;;;485.97;206.73;;;;;;;;;;5038317;28;20192;-77
2023/10/29 10:26:18;;;;;;;486.57;209.37;;;;;;;;;;5009148;28;20236;-77
2023/10/29 10:28:56;;;;;;;471.30;197.07;;;;;;;;;;5013243;28;20212;-77
2023/10/29 10:31:22;;;;;;;453.70;185.33;;;;;;;;;;5014759;28;20258;-77
2023/10/29 10:33:49;;;;;;;452.40;185.83;;;;;;;;;;5015347;28;20352;-77
2023/10/29 10:36:15;;;;;;;487.77;210.40;;;;;;;;;;5013719;28;20216;-77
2023/10/29 10:38:53;;;;;;;472.93;195.67;;;;;;;;;;5014887;28;20196;-78
2023/10/29 10:41:19;;;;;;;471.97;203.13;;;;;;;;;;5012735;28;20251;-77
2023/10/29 10:43:45;;;;;;;447.10;187.77;;;;;;;;;;5011743;28;20804;-78
2023/10/29 10:46:14;;;;;;;486.70;203.47;;;;;;;;;;5007298;28;20255;-77
2023/10/29 10:48:41;;;;;;;471.13;198.30;;;;;;;;;;5001073;28;21870;-77
2023/10/29 10:51:11;;;;;;;472.00;195.93;;;;;;;;;;5005565;28;20215;-78
2023/10/29 10:53:38;;;;;;;478.37;202.67;;;;;;;;;;5005051;28;20287;-78
2023/10/29 10:56:05;;;;;;;495.37;215.60;;;;;;;;;;5039602;28;20222;-78
2023/10/29 10:58:32;;;;;;;452.80;195.73;;;;;;;;;;5005198;28;20243;-78
2023/10/29 11:00:58;;;;;;;477.90;202.33;;;;;;;;;;5014544;28;20212;-78
2023/10/29 11:03:26;;;;;;;460.73;193.37;;;;;;;;;;5005660;28;20255;-78
2023/10/29 11:05:53;;;;;;;490.77;212.67;;;;;;;;;;5019218;28;20207;-78
2023/10/29 11:08:20;;;;;;;476.50;203.23;;;;;;;;;;5000131;28;20216;-78
2023/10/29 11:10:47;;;;;;;456.47;189.63;;;;;;;;;;5007789;28;21532;-78
2023/10/29 11:13:20;;;;;;;454.97;194.00;;;;;;;;;;5010646;28;20222;-78
2023/10/29 11:15:49;;;;;;;499.47;213.87;;;;;;;;;;5018406;28;20654;-78
2023/10/29 11:18:27;;;;;;;473.30;204.03;;;;;;;;;;5007919;28;20564;-78
2023/10/29 11:20:53;;;;;;;464.57;200.33;;;;;;;;;;5004667;28;21732;-75
2023/10/29 11:23:26;;;;;;;482.97;206.90;;;;;;;;;;5016665;28;20462;-78
2023/10/29 11:26:12;;;;;;;491.83;215.23;;;;;;;;;;5001506;28;20333;-76
2023/10/29 11:28:38;;;;;;;504.83;215.73;;;;;;;;;;5004529;28;20208;-77
2023/10/29 11:31:20;;;;;;;480.67;201.97;;;;;;;;;;5002756;28;20559;-74
2023/10/29 11:33:47;;;;;;;458.60;187.40;;;;;;;;;;5010916;28;20227;-74
2023/10/29 11:36:30;;;;;;;433.80;177.00;;;;;;;;;;5011994;28;20188;-73
2023/10/29 11:39:16;;;;;;;455.40;190.77;;;;;;;;;;5009949;28;20185;-74
2023/10/29 11:41:43;;;;;;;496.03;210.37;;;;;;;;;;5037240;28;20318;-73
2023/10/29 11:44:25;;;;;;;465.63;193.43;;;;;;;;;;5007560;28;20361;-76
2023/10/29 11:47:01;;;;;;;458.30;191.77;;;;;;;;;;5009921;28;20285;-78
2023/10/29 11:49:28;;;;;;;452.50;189.93;;;;;;;;;;5006582;28;20212;-77
2023/10/29 11:52:03;;;;;;;449.33;186.40;;;;;;;;;;5012633;28;20289;-76
2023/10/29 11:54:29;;;;;;;450.97;187.53;;;;;;;;;;5017606;28;20238;-74
2023/10/29 11:56:57;;;;;;;445.90;187.17;;;;;;;;;;5008948;28;20209;-74
2023/10/29 11:59:23;;;;;;;513.37;225.87;;;;;;;;;;5006049;28;20725;-75
2023/10/29 12:01:49;;;;;;;456.37;192.60;;;;;;;;;;5009338;28;20556;-75
2023/10/29 12:04:15;;;;;;;657.47;319.70;;;;;;;;;;5003289;28;20243;-76
2023/10/29 12:06:48;;;;;;;503.17;215.97;;;;;;;;;;5002174;28;20228;-76
2023/10/29 12:09:15;;;;;;;474.33;203.07;;;;;;;;;;5009155;28;20180;-75
2023/10/29 12:11:41;;;;;;;500.87;217.53;;;;;;;;;;5009190;28;20200;-75
2023/10/29 12:14:07;;;;;;;465.17;196.13;;;;;;;;;;5006670;28;20325;-76
2023/10/29 12:16:33;;;;;;;493.60;214.90;;;;;;;;;;5011004;28;20216;-75
2023/10/29 12:18:59;;;;;;;505.83;221.20;;;;;;;;;;4996342;28;20555;-76
2023/10/29 12:21:25;;;;;;;482.73;200.57;;;;;;;;;;5003987;28;20219;-75
2023/10/29 12:23:51;;;;;;;497.73;214.60;;;;;;;;;;5003071;28;20677;-75
2023/10/29 12:26:18;;;;;;;523.37;227.03;;;;;;;;;;5009274;28;21717;-75
2023/10/29 12:28:45;;;;;;;509.20;221.53;;;;;;;;;;5001345;28;20228;-75
2023/10/29 12:31:23;;;;;;;487.80;209.27;;;;;;;;;;5002985;28;20220;-75
2023/10/29 12:33:57;;;;;;;485.90;209.23;;;;;;;;;;4996746;28;20227;-75
2023/10/29 12:36:23;;;;;;;495.97;212.87;;;;;;;;;;5000542;28;20779;-75
2023/10/29 12:38:49;;;;;;;492.83;209.67;;;;;;;;;;5007449;28;20410;-75
2023/10/29 12:41:16;;;;;;;506.00;216.80;;;;;;;;;;5000407;28;20290;-74
2023/10/29 12:43:42;;;;;;;521.03;225.87;;;;;;;;;;5008310;28;20216;-74
2023/10/29 12:46:12;;;;;;;499.30;214.13;;;;;;;;;;5001882;28;20598;-74
2023/10/29 12:48:57;;;;;;;479.03;202.83;;;;;;;;;;4998149;28;20216;-75
2023/10/29 12:51:28;;;;;;;493.43;210.37;;;;;;;;;;4996907;28;20228;-75
2023/10/29 12:54:14;;;;;;;456.17;190.10;;;;;;;;;;5008497;28;20212;-74
2023/10/29 12:56:53;;;;;;;467.77;192.90;;;;;;;;;;5017793;28;20220;-72
2023/10/29 12:59:20;;;;;;;473.03;195.30;;;;;;;;;;5014776;28;20663;-74
2023/10/29 13:01:53;;;;;;;467.67;193.20;;;;;;;;;;5005867;28;20236;-74
2023/10/29 13:04:20;;;;;;;452.73;192.77;;;;;;;;;;5014521;28;20216;-74
2023/10/29 13:06:46;;;;;;;408.23;178.33;;;;;;;;;;5020017;28;20227;-74
2023/10/29 13:09:17;;;;;;;376.73;161.47;;;;;;;;;;5022065;28;20181;-74
2023/10/29 13:11:43;;;;;;;399.10;175.47;;;;;;;;;;5021158;28;20174;-75
2023/10/29 13:14:09;;;;;;;350.23;149.27;;;;;;;;;;5020812;28;20589;-74
2023/10/29 13:16:35;;;;;;;387.37;169.40;;;;;;;;;;5018898;28;20212;-74
2023/10/29 13:19:01;;;;;;;347.00;147.03;;;;;;;;;;5023231;28;20204;-75
2023/10/29 13:21:27;;;;;;;381.63;165.00;;;;;;;;;;5021324;28;20231;-74
2023/10/29 13:23:53;;;;;;;359.83;154.33;;;;;;;;;;5022889;28;20558;-75
2023/10/29 13:26:20;;;;;;;381.07;165.13;;;;;;;;;;5021886;28;20220;-75
2023/10/29 13:28:49;;;;;;;382.27;165.60;;;;;;;;;;5018795;28;20223;-75
2023/10/29 13:31:15;;;;;;;363.67;156.50;;;;;;;;;;5019687;28;20239;-74
2023/10/29 13:33:41;;;;;;;397.87;174.93;;;;;;;;;;5021342;28;20236;-74
2023/10/29 13:36:07;;;;;;;385.57;170.87;;;;;;;;;;5020925;28;20300;-75
2023/10/29 13:38:34;;;;;;;392.73;170.90;;;;;;;;;;5022174;28;20655;-74
2023/10/29 13:41:00;;;;;;;371.67;162.53;;;;;;;;;;5021500;28;20242;-75
2023/10/29 13:43:27;;;;;;;369.67;160.53;;;;;;;;;;5021208;28;20216;-75
2023/10/29 13:45:57;;;;;;;386.27;166.40;;;;;;;;;;5020582;28;20227;-75
2023/10/29 13:48:23;;;;;;;489.23;205.03;;;;;;;;;;5017928;28;20295;-74
2023/10/29 13:50:49;;;;;;;440.23;185.13;;;;;;;;;;5006745;28;20192;-74